Time;durP1;ratioP1;P1;durP2;ratioP2;P2;SDS_P1;SDS_P2;PMS_P1;PMS_P2;Temp;Humidity;BMP_temperature;BMP_pressure;BME280_temperature;BME280_humidity;BME280_pressure;Samples;Min_cycle;Max_cycle;Signal;HPM_P1;HPM_P2
2021/06/24 00:02:41;;;;;;;5.70;3.53;;;;;;;15.26;53.16;101630.34;8035007;28;20028;-72
2021/06/24 00:06:32;;;;;;;8.50;3.67;;;;;;;15.24;53.06;101632.28;8038494;28;20045;-72
2021/06/24 00:10:22;;;;;;;6.47;3.55;;;;;;;15.17;53.11;101623.06;8039315;28;20024;-72
2021/06/24 00:14:13;;;;;;;7.07;3.83;;;;;;;15.18;53.33;101627.41;8038018;28;20572;-72
2021/06/24 00:18:04;;;;;;;4.15;3.25;;;;;;;15.17;53.43;101609.84;8037499;28;20052;-72
2021/06/24 00:21:54;;;;;;;5.07;3.58;;;;;;;15.13;53.40;101609.22;8038477;28;20047;-72
2021/06/24 00:25:45;;;;;;;4.15;3.45;;;;;;;15.19;53.58;101618.53;8038146;28;20493;-72
2021/06/24 00:29:36;;;;;;;7.75;4.07;;;;;;;15.17;53.51;101615.13;8037843;28;20046;-72
2021/06/24 00:33:27;;;;;;;5.38;3.50;;;;;;;15.17;53.66;101615.97;8037660;28;20028;-72
2021/06/24 00:37:25;;;;;;;4.35;3.30;;;;;;;15.17;53.94;101613.34;8038319;28;20037;-72
2021/06/24 00:41:16;;;;;;;6.88;3.17;;;;;;;15.15;53.92;101617.91;8038097;28;20035;-72
2021/06/24 00:45:10;;;;;;;5.57;2.70;;;;;;;15.15;53.94;101614.41;8037652;28;20024;-72
2021/06/24 00:49:03;;;;;;;4.43;2.45;;;;;;;15.22;54.12;101626.25;8037789;28;20037;-72
2021/06/24 00:52:54;;;;;;;5.22;2.50;;;;;;;15.22;54.09;101624.44;8037627;28;20029;-72
2021/06/24 00:56:45;;;;;;;4.35;2.83;;;;;;;15.24;54.22;101622.53;8037974;28;20094;-72
2021/06/24 01:00:40;;;;;;;6.78;3.05;;;;;;;15.27;54.31;101624.09;8036057;28;20064;-72
2021/06/24 01:04:33;;;;;;;4.78;2.50;;;;;;;15.27;54.18;101622.31;8036577;28;20039;-72
2021/06/24 01:08:28;;;;;;;6.60;3.22;;;;;;;15.30;54.28;101615.97;8037910;28;20060;-72
2021/06/24 01:12:23;;;;;;;4.90;2.90;;;;;;;15.26;54.43;101607.38;8036172;28;20020;-72
2021/06/24 01:16:15;;;;;;;6.50;2.70;;;;;;;15.26;54.25;101609.16;8037815;28;20149;-72
2021/06/24 01:20:06;;;;;;;2.63;2.42;;;;;;;15.28;54.33;101607.28;8038376;28;20032;-71
2021/06/24 01:24:00;;;;;;;5.25;3.28;;;;;;;15.27;54.39;101610.88;8037982;28;20034;-71
2021/06/24 01:28:01;;;;;;;3.72;2.95;;;;;;;15.25;54.36;101604.81;8038841;28;20465;-72
2021/06/24 01:31:52;;;;;;;3.45;2.50;;;;;;;15.19;54.49;101597.34;8042133;28;20106;-72
2021/06/24 01:35:43;;;;;;;3.20;2.28;;;;;;;15.18;54.34;101590.38;8043666;28;20118;-72
2021/06/24 01:39:34;;;;;;;6.00;2.55;;;;;;;15.20;54.40;101609.63;8043319;28;20365;-72
2021/06/24 01:43:26;;;;;;;4.20;2.42;;;;;;;15.18;54.30;101600.97;8043011;28;20108;-72
2021/06/24 01:47:16;;;;;;;9.65;2.70;;;;;;;15.15;54.46;101602.03;8043367;28;20489;-72
2021/06/24 01:51:08;;;;;;;4.65;3.10;;;;;;;15.13;54.48;101603.94;8043262;28;20085;-71
2021/06/24 01:54:58;;;;;;;4.13;2.90;;;;;;;15.07;54.36;101591.19;8042570;28;20032;-72
2021/06/24 01:58:56;;;;;;;4.85;2.70;;;;;;;15.03;54.48;101581.78;8025907;28;20504;-72
2021/06/24 02:03:08;;;;;;;3.70;2.60;;;;;;;15.03;54.58;101594.16;8039153;28;20028;-72
2021/06/24 02:06:59;;;;;;;4.82;2.65;;;;;;;15.00;54.53;101584.63;8042924;28;20048;-71
2021/06/24 02:11:28;;;;;;;4.88;2.65;;;;;;;14.91;54.51;101574.75;8041296;28;20039;-72
2021/06/24 02:15:26;;;;;;;4.05;2.25;;;;;;;14.96;54.58;101579.69;8042528;28;20032;-72
2021/06/24 02:19:17;;;;;;;3.97;2.45;;;;;;;14.95;54.51;101578.84;8042785;28;20036;-72
2021/06/24 02:23:27;;;;;;;5.82;3.20;;;;;;;14.92;54.47;101573.75;8040585;28;20488;-72
2021/06/24 02:27:32;;;;;;;4.53;2.30;;;;;;;14.92;54.47;101579.03;8040480;28;20035;-71
2021/06/24 02:31:41;;;;;;;5.32;2.97;;;;;;;14.89;54.86;101571.34;8034920;28;20101;-72
2021/06/24 02:35:46;;;;;;;5.13;3.08;;;;;;;14.83;54.68;101554.13;8040234;28;20044;-72
2021/06/24 02:39:38;;;;;;;6.38;2.88;;;;;;;14.83;54.77;101560.38;8031912;28;20029;-72
2021/06/24 02:43:30;;;;;;;6.68;2.83;;;;;;;14.80;54.41;101561.44;8041013;28;20039;-72
2021/06/24 02:47:22;;;;;;;6.70;3.22;;;;;;;14.73;54.50;101554.91;8041224;28;20032;-72
2021/06/24 02:51:13;;;;;;;3.00;2.70;;;;;;;14.71;54.61;101548.91;8041757;28;20032;-72
2021/06/24 02:55:22;;;;;;;5.22;2.80;;;;;;;14.63;54.47;101552.06;8039416;28;20626;-72
2021/06/24 02:59:16;;;;;;;4.80;2.90;;;;;;;14.61;54.65;101553.16;8039574;28;20581;-72
2021/06/24 03:03:08;;;;;;;6.03;3.40;;;;;;;14.56;54.78;101550.00;8039906;28;20028;-72
2021/06/24 03:07:17;;;;;;;6.25;2.88;;;;;;;14.51;54.73;101565.34;8039855;28;20024;-72
2021/06/24 03:11:40;;;;;;;4.05;2.90;;;;;;;14.45;54.62;101553.41;8028249;28;21036;-72
2021/06/24 03:15:32;;;;;;;4.72;3.58;;;;;;;14.43;54.58;101565.88;8040719;28;20090;-72
2021/06/24 03:19:24;;;;;;;4.07;2.80;;;;;;;14.42;54.76;101560.69;8039875;28;20036;-72
2021/06/24 03:23:33;;;;;;;5.20;2.85;;;;;;;14.31;54.88;101548.22;8039006;28;20029;-72
2021/06/24 03:27:25;;;;;;;4.25;3.08;;;;;;;14.35;54.66;101558.47;8039316;28;20079;-72
2021/06/24 03:31:45;;;;;;;4.80;2.90;;;;;;;14.36;54.88;101557.53;8038168;28;20089;-72
2021/06/24 03:35:39;;;;;;;7.00;2.97;;;;;;;14.38;55.05;101560.03;8035675;28;20028;-72
2021/06/24 03:39:29;;;;;;;5.97;2.60;;;;;;;14.39;55.02;101553.81;8039710;28;20103;-72
2021/06/24 03:43:22;;;;;;;7.05;3.15;;;;;;;14.37;55.12;101553.09;8030549;28;20028;-72
2021/06/24 03:47:12;;;;;;;5.15;3.10;;;;;;;14.41;55.18;101554.56;8039223;28;20532;-71
2021/06/24 03:51:05;;;;;;;3.95;2.60;;;;;;;14.43;55.10;101559.75;8038286;28;20507;-72
2021/06/24 03:54:56;;;;;;;5.38;2.75;;;;;;;14.44;55.26;101557.00;8038253;28;20400;-72
2021/06/24 03:58:48;;;;;;;4.50;3.08;;;;;;;14.43;55.17;101555.31;8032779;28;20409;-72
2021/06/24 04:02:40;;;;;;;6.63;2.83;;;;;;;14.46;55.34;101557.75;8039317;28;20044;-72
2021/06/24 04:06:31;;;;;;;4.63;2.63;;;;;;;14.47;55.44;101554.13;8038742;28;20086;-72
2021/06/24 04:10:24;;;;;;;8.40;3.85;;;;;;;14.49;55.31;101549.59;8039087;28;20060;-72
2021/06/24 04:14:15;;;;;;;7.35;3.55;;;;;;;14.51;55.29;101541.53;8037924;28;20095;-72
2021/06/24 04:18:20;;;;;;;8.68;2.65;;;;;;;14.53;55.40;101540.50;8038335;28;20024;-72
2021/06/24 04:22:13;;;;;;;7.95;3.30;;;;;;;14.56;55.52;101534.13;8037390;28;20133;-72
2021/06/24 04:26:27;;;;;;;3.97;2.75;;;;;;;14.67;55.66;101539.50;8037448;28;20864;-72
2021/06/24 04:30:19;;;;;;;6.97;2.97;;;;;;;14.75;55.61;101540.59;8022902;28;20217;-72
2021/06/24 04:34:12;;;;;;;6.63;3.15;;;;;;;14.79;55.74;101534.13;8038265;28;20036;-72
2021/06/24 04:38:21;;;;;;;5.75;2.85;;;;;;;14.95;55.62;101530.38;8038059;28;20029;-72
2021/06/24 04:42:17;;;;;;;8.73;3.47;;;;;;;15.07;55.66;101525.03;8037553;28;20814;-74
2021/06/24 04:46:27;;;;;;;12.15;3.63;;;;;;;15.17;55.52;101528.66;8033813;28;20059;-73
2021/06/24 04:50:18;;;;;;;4.28;2.95;;;;;;;15.29;55.50;101529.59;8037517;28;20024;-73
2021/06/24 04:54:16;;;;;;;4.93;2.78;;;;;;;15.39;55.63;101527.06;8035738;28;20033;-73
2021/06/24 04:58:09;;;;;;;5.82;2.90;;;;;;;15.60;55.66;101536.03;8035620;28;20051;-73
2021/06/24 05:01:59;;;;;;;6.78;3.28;;;;;;;15.72;55.52;101521.84;8039022;28;20068;-72
2021/06/24 05:06:10;;;;;;;7.03;3.10;;;;;;;15.91;55.45;101516.78;8040834;28;20688;-72
2021/06/24 05:10:01;;;;;;;6.45;3.60;;;;;;;16.12;55.32;101524.88;8042971;28;20036;-72
2021/06/24 05:13:52;;;;;;;5.72;2.92;;;;;;;16.31;55.25;101526.94;8043763;28;20079;-72
2021/06/24 05:17:42;;;;;;;6.72;3.15;;;;;;;16.35;55.03;101518.59;8043280;28;20078;-72
2021/06/24 05:21:33;;;;;;;7.70;2.97;;;;;;;16.37;54.95;101516.66;8044742;28;20587;-71
2021/06/24 05:25:24;;;;;;;5.03;3.30;;;;;;;16.38;54.77;101525.47;8043594;28;20033;-72
2021/06/24 05:29:15;;;;;;;5.03;3.00;;;;;;;16.32;54.88;101520.66;8042733;28;20032;-72
2021/06/24 05:33:05;;;;;;;6.97;3.63;;;;;;;16.37;54.79;101521.97;8043884;28;20027;-72
2021/06/24 05:36:57;;;;;;;10.10;3.72;;;;;;;16.44;54.67;101527.63;8044014;28;20107;-71
2021/06/24 05:40:49;;;;;;;12.82;4.18;;;;;;;16.90;54.86;101533.53;8042323;28;20029;-72
2021/06/24 05:44:40;;;;;;;10.00;3.78;;;;;;;17.36;54.84;101527.91;8042083;28;20038;-72
2021/06/24 05:48:33;;;;;;;6.53;3.15;;;;;;;17.65;54.31;101540.53;8042853;28;20067;-72
2021/06/24 05:52:23;;;;;;;7.38;4.03;;;;;;;17.66;54.30;101535.09;8043360;28;20100;-72
2021/06/24 05:56:14;;;;;;;6.25;3.25;;;;;;;17.60;54.09;101538.28;8038676;28;20025;-72
2021/06/24 06:00:06;;;;;;;14.40;3.78;;;;;;;17.50;54.00;101532.91;8043413;28;20036;-71
2021/06/24 06:04:04;;;;;;;6.25;3.85;;;;;;;17.39;53.68;101522.34;8042144;28;20035;-72
2021/06/24 06:07:54;;;;;;;7.75;4.13;;;;;;;17.45;53.66;101532.44;8041922;28;20021;-72
2021/06/24 06:11:45;;;;;;;11.13;4.00;;;;;;;17.73;53.82;101535.44;8042160;28;20134;-72
2021/06/24 06:15:38;;;;;;;9.85;3.97;;;;;;;18.25;54.00;101537.91;8041062;28;20066;-72
2021/06/24 06:19:29;;;;;;;7.10;3.80;;;;;;;18.61;53.51;101527.66;8042887;28;20036;-72
2021/06/24 06:23:21;;;;;;;9.18;3.60;;;;;;;18.79;53.52;101534.84;8041911;28;20407;-72
2021/06/24 06:27:12;;;;;;;11.35;4.40;;;;;;;19.20;53.25;101524.91;8041952;28;20028;-72
2021/06/24 06:31:03;;;;;;;8.27;4.80;;;;;;;19.75;52.51;101520.59;8042102;28;20050;-72
2021/06/24 06:34:54;;;;;;;9.15;4.75;;;;;;;20.18;51.93;101518.19;8039973;28;20044;-73
2021/06/24 06:38:44;;;;;;;7.90;4.30;;;;;;;20.57;51.76;101518.00;8041851;28;20024;-72
2021/06/24 06:42:35;;;;;;;8.38;4.95;;;;;;;20.98;51.38;101511.22;8041905;28;20039;-68
2021/06/24 06:46:26;;;;;;;15.73;5.28;;;;;;;21.39;51.15;101517.75;8041524;28;20578;-71
2021/06/24 06:50:16;;;;;;;17.30;6.30;;;;;;;21.56;50.50;101511.53;8042692;28;20093;-72
2021/06/24 06:54:07;;;;;;;9.05;5.85;;;;;;;21.80;50.08;101514.34;8041583;28;20040;-74
2021/06/24 06:57:58;;;;;;;15.23;7.38;;;;;;;21.90;49.53;101514.25;8041434;28;20036;-70
2021/06/24 07:01:49;;;;;;;11.93;7.53;;;;;;;21.80;49.32;101511.66;8041220;28;20032;-72
2021/06/24 07:05:40;;;;;;;13.07;7.68;;;;;;;21.67;49.14;101521.94;8040590;28;20502;-72
2021/06/24 07:09:34;;;;;;;13.05;8.77;;;;;;;21.86;48.98;101521.78;8038919;28;20040;-72
2021/06/24 07:13:25;;;;;;;12.32;8.45;;;;;;;21.86;48.69;101505.72;8038601;28;20036;-72
2021/06/24 07:17:15;;;;;;;11.80;8.60;;;;;;;21.78;48.72;101507.47;8040864;28;20056;-71
2021/06/24 07:21:06;;;;;;;16.00;9.80;;;;;;;22.17;48.40;101503.31;8039837;28;20077;-71
2021/06/24 07:24:57;;;;;;;17.60;11.07;;;;;;;22.66;48.24;101507.03;8038978;28;20044;-71
2021/06/24 07:28:47;;;;;;;15.40;11.60;;;;;;;23.09;47.80;101507.69;8039998;28;20036;-71
2021/06/24 07:32:38;;;;;;;19.40;11.52;;;;;;;23.47;47.06;101504.34;8039533;28;20442;-72
2021/06/24 07:36:29;;;;;;;21.48;12.02;;;;;;;23.80;46.87;101492.56;8038677;28;20047;-72
2021/06/24 07:40:19;;;;;;;21.13;12.95;;;;;;;24.07;46.75;101495.81;8039399;28;20032;-72
2021/06/24 07:44:10;;;;;;;23.85;13.10;;;;;;;24.17;45.76;101493.75;8039558;28;20040;-72
2021/06/24 07:48:01;;;;;;;18.95;14.02;;;;;;;24.19;45.58;101491.75;8039348;28;20044;-72
2021/06/24 07:51:51;;;;;;;20.75;13.70;;;;;;;24.38;45.51;101498.53;8039530;28;20386;-72
2021/06/24 07:55:42;;;;;;;25.20;13.63;;;;;;;24.67;44.93;101488.78;8039027;28;20048;-73
2021/06/24 07:59:34;;;;;;;21.73;13.82;;;;;;;24.72;44.31;101485.56;8037503;28;20377;-72
2021/06/24 08:03:25;;;;;;;19.83;12.40;;;;;;;24.41;44.25;101487.44;8034589;28;20028;-72
2021/06/24 08:07:16;;;;;;;17.20;11.35;;;;;;;24.22;44.59;101481.47;8039198;28;20191;-72
2021/06/24 08:11:06;;;;;;;19.13;12.52;;;;;;;24.22;44.54;101489.53;8038086;28;20037;-71
2021/06/24 08:14:57;;;;;;;18.10;11.80;;;;;;;23.83;44.75;101492.22;8038637;28;20024;-72
2021/06/24 08:18:48;;;;;;;17.17;13.57;;;;;;;23.32;44.59;101506.91;8039194;28;20039;-72
2021/06/24 08:22:39;;;;;;;21.42;12.52;;;;;;;22.82;45.02;101507.03;8037875;28;20497;-71
2021/06/24 08:26:29;;;;;;;23.42;15.23;;;;;;;22.41;45.22;101500.75;8038482;28;20036;-71
2021/06/24 08:30:21;;;;;;;22.60;15.02;;;;;;;22.01;45.55;101509.47;8038967;28;20033;-72
2021/06/24 08:34:12;;;;;;;28.27;16.75;;;;;;;21.64;46.02;101511.56;8037920;28;20111;-72
2021/06/24 08:38:04;;;;;;;25.25;16.45;;;;;;;21.31;46.12;101505.19;8037271;28;20583;-72
2021/06/24 08:41:55;;;;;;;25.00;16.85;;;;;;;21.02;46.20;101508.09;8038256;28;20044;-72
2021/06/24 08:45:46;;;;;;;25.17;17.00;;;;;;;20.82;46.26;101503.91;8038105;28;20039;-72
2021/06/24 08:49:37;;;;;;;31.23;16.65;;;;;;;20.69;46.79;101506.94;8037988;28;20033;-71
2021/06/24 08:53:29;;;;;;;24.33;17.05;;;;;;;20.56;46.83;101517.16;8037499;28;20667;-72
2021/06/24 08:57:21;;;;;;;32.35;18.80;;;;;;;20.50;46.94;101514.22;8037767;28;20033;-72
2021/06/24 09:01:12;;;;;;;32.40;18.73;;;;;;;20.51;47.26;101507.91;8037970;28;20043;-72
2021/06/24 09:05:09;;;;;;;28.50;16.77;;;;;;;20.56;47.31;101517.16;8036233;28;20074;-72
2021/06/24 09:09:00;;;;;;;24.13;15.73;;;;;;;20.56;47.24;101516.31;8036966;28;20029;-72
2021/06/24 09:12:54;;;;;;;23.65;15.80;;;;;;;20.50;46.96;101511.56;8035764;28;20572;-71
2021/06/24 09:16:45;;;;;;;25.42;15.05;;;;;;;20.46;47.06;101519.03;8035943;28;20033;-72
2021/06/24 09:20:36;;;;;;;22.58;15.20;;;;;;;20.46;47.29;101513.69;8035412;28;20029;-72
2021/06/24 09:24:28;;;;;;;28.73;15.77;;;;;;;20.46;47.15;101512.84;8035940;28;20044;-71
2021/06/24 09:28:36;;;;;;;28.60;17.02;;;;;;;20.47;47.44;101510.00;8037194;28;20052;-72
2021/06/24 09:32:30;;;;;;;21.08;15.65;;;;;;;20.47;47.64;101514.53;8037277;28;20024;-72
2021/06/24 09:36:32;;;;;;;20.83;15.27;;;;;;;20.47;47.44;101511.88;8034439;28;20035;-72
2021/06/24 09:40:46;;;;;;;24.25;15.32;;;;;;;20.69;47.79;101514.13;8034885;28;20068;-71
2021/06/24 09:44:42;;;;;;;29.65;18.10;;;;;;;20.93;47.69;101511.69;8036946;28;20117;-72
2021/06/24 09:48:57;;;;;;;25.08;17.92;;;;;;;21.13;47.67;101509.69;8038216;28;20044;-72
2021/06/24 09:53:12;;;;;;;22.67;16.92;;;;;;;21.29;47.41;101512.53;8037402;28;20570;-73
2021/06/24 09:57:03;;;;;;;22.02;16.45;;;;;;;21.44;47.56;101499.41;8028349;28;20036;-72
2021/06/24 10:00:54;;;;;;;23.45;15.95;;;;;;;21.61;47.25;101499.38;8035563;28;20036;-73
2021/06/24 10:04:46;;;;;;;24.48;16.17;;;;;;;21.73;47.17;101496.41;8042328;28;20043;-73
2021/06/24 10:08:37;;;;;;;23.40;17.15;;;;;;;21.79;46.92;101491.28;8023110;28;20037;-72
2021/06/24 10:12:28;;;;;;;24.70;17.15;;;;;;;21.90;46.67;101491.03;8028124;28;20164;-73
2021/06/24 10:16:19;;;;;;;26.38;18.15;;;;;;;21.97;46.64;101493.88;8024938;28;20031;-73
2021/06/24 10:20:11;;;;;;;25.10;16.33;;;;;;;22.01;46.72;101498.75;8028840;28;20050;-71
2021/06/24 10:24:09;;;;;;;21.55;15.98;;;;;;;22.10;46.79;101491.59;8026747;28;20722;-72
2021/06/24 10:28:00;;;;;;;23.15;16.55;;;;;;;22.19;46.49;101492.47;8028913;28;20063;-71
2021/06/24 10:31:53;;;;;;;22.65;17.00;;;;;;;22.29;46.84;101485.16;8029219;28;20036;-72
2021/06/24 10:35:51;;;;;;;29.98;18.48;;;;;;;22.41;46.57;101482.03;8027988;28;20437;-71
2021/06/24 10:39:43;;;;;;;21.77;16.27;;;;;;;22.48;46.83;101487.56;8026230;28;20044;-71
2021/06/24 10:43:48;;;;;;;22.50;16.63;;;;;;;22.47;46.29;101480.53;8028922;28;20032;-71
2021/06/24 10:47:41;;;;;;;27.35;16.67;;;;;;;22.58;46.30;101485.56;8028584;28;20033;-72
2021/06/24 10:51:33;;;;;;;23.13;16.35;;;;;;;22.63;46.06;101477.03;8029859;28;20044;-73
2021/06/24 10:55:33;;;;;;;19.85;13.90;;;;;;;22.62;46.10;101475.38;8030099;28;20028;-72
2021/06/24 10:59:29;;;;;;;18.00;12.70;;;;;;;22.67;46.46;101478.38;8030667;28;20032;-72
2021/06/24 11:03:37;;;;;;;18.88;13.10;;;;;;;22.70;45.88;101462.00;8025929;28;20025;-72
2021/06/24 11:07:35;;;;;;;21.70;13.98;;;;;;;22.81;45.78;101469.69;8023451;28;20032;-72
2021/06/24 11:11:38;;;;;;;21.52;13.27;;;;;;;22.76;45.79;101458.66;8027710;28;20441;-72
2021/06/24 11:15:52;;;;;;;17.92;11.18;;;;;;;22.80;45.45;101468.03;8026633;28;20036;-72
2021/06/24 11:20:16;;;;;;;17.27;12.88;;;;;;;22.86;45.63;101473.56;8028139;28;20043;-73
2021/06/24 11:24:06;;;;;;;15.85;11.48;;;;;;;22.96;45.38;101466.19;8027529;28;20458;-71
2021/06/24 11:28:36;;;;;;;17.80;11.77;;;;;;;22.92;45.90;101462.16;8025750;28;20141;-73
2021/06/24 11:32:36;;;;;;;13.75;10.70;;;;;;;22.95;44.87;101469.03;8027754;28;20043;-73
2021/06/24 11:36:27;;;;;;;18.60;10.77;;;;;;;22.94;44.89;101464.69;8024182;28;20036;-72
2021/06/24 11:40:18;;;;;;;16.67;10.40;;;;;;;22.89;44.93;101462.50;8026573;28;20040;-72
2021/06/24 11:44:09;;;;;;;13.93;11.02;;;;;;;22.80;44.64;101458.16;8026196;28;20503;-72
2021/06/24 11:47:59;;;;;;;16.88;11.05;;;;;;;22.80;44.62;101462.66;8026353;28;20028;-72
2021/06/24 12:00:28;;;;;;;13.90;10.20;;;;;;;22.76;44.76;101451.44;8023104;28;20032;-72
2021/06/24 12:04:31;;;;;;;11.63;9.98;;;;;;;22.77;44.47;101457.66;8021962;28;20091;-70
2021/06/24 12:08:27;;;;;;;14.20;10.60;;;;;;;22.76;44.20;101442.56;8020913;28;20058;-71
2021/06/24 12:12:24;;;;;;;14.95;10.90;;;;;;;22.75;44.19;101449.78;8023086;28;20380;-71
2021/06/24 12:16:14;;;;;;;12.43;9.27;;;;;;;22.77;44.66;101444.25;8024672;28;20039;-71
2021/06/24 12:20:20;;;;;;;14.15;9.45;;;;;;;22.83;44.18;101449.78;8024975;28;20048;-70
2021/06/24 12:24:32;;;;;;;12.30;8.65;;;;;;;22.83;43.83;101447.09;8023285;28;20048;-71
2021/06/24 12:28:24;;;;;;;15.20;8.65;;;;;;;22.86;44.13;101445.94;8022231;28;20035;-69
2021/06/24 12:32:19;;;;;;;10.05;8.82;;;;;;;22.82;43.94;101441.91;8025690;28;20106;-71
2021/06/24 12:36:09;;;;;;;14.25;8.65;;;;;;;22.78;43.91;101449.47;8021831;28;20505;-70
2021/06/24 12:40:04;;;;;;;11.65;9.05;;;;;;;22.74;43.85;101445.44;8022646;28;20028;-72
2021/06/24 12:44:00;;;;;;;12.23;8.02;;;;;;;22.70;44.10;101441.41;8024650;28;20063;-71
2021/06/24 12:47:51;;;;;;;12.68;9.27;;;;;;;22.69;43.76;101439.75;8024890;28;20441;-71
2021/06/24 12:51:42;;;;;;;16.55;8.70;;;;;;;22.70;43.56;101443.25;8023944;28;20451;-72
2021/06/24 12:55:48;;;;;;;10.63;8.40;;;;;;;22.67;43.57;101433.69;8023208;28;20032;-72
2021/06/24 12:59:45;;;;;;;11.02;8.43;;;;;;;22.68;43.58;101430.03;8023775;28;20565;-70
2021/06/24 13:03:57;;;;;;;14.77;8.70;;;;;;;22.69;43.67;101436.22;8024671;28;20029;-69
2021/06/24 13:08:01;;;;;;;12.40;8.35;;;;;;;22.76;43.41;101430.03;8022209;28;20044;-72
2021/06/24 13:11:51;;;;;;;11.48;8.85;;;;;;;22.82;43.41;101432.03;8024914;28;20040;-72
2021/06/24 13:15:42;;;;;;;12.27;7.50;;;;;;;22.82;43.59;101428.53;8024182;28;20500;-70
2021/06/24 13:19:37;;;;;;;11.02;8.73;;;;;;;22.85;43.35;101429.03;8024331;28;20049;-71
2021/06/24 13:23:35;;;;;;;11.85;8.00;;;;;;;22.84;43.31;101424.66;8026423;28;20033;-72
2021/06/24 13:27:37;;;;;;;12.05;8.50;;;;;;;22.85;43.55;101417.47;8029800;28;20044;-72
2021/06/24 13:31:31;;;;;;;13.90;8.27;;;;;;;22.85;43.37;101421.00;8030455;28;20855;-72
2021/06/24 13:35:29;;;;;;;14.38;8.25;;;;;;;22.78;43.36;101421.84;8027852;28;20040;-72
2021/06/24 13:39:33;;;;;;;16.17;8.68;;;;;;;22.74;43.14;101429.38;8027842;28;20048;-72
2021/06/24 13:43:25;;;;;;;11.60;8.57;;;;;;;22.67;43.04;101423.00;8030404;28;20094;-72
2021/06/24 13:47:16;;;;;;;11.32;8.05;;;;;;;22.61;43.18;101429.03;8029435;28;20503;-72
2021/06/24 13:51:07;;;;;;;12.90;7.53;;;;;;;22.52;43.01;101420.16;8030228;28;20040;-71
2021/06/24 13:54:59;;;;;;;9.75;7.00;;;;;;;22.50;42.83;101432.00;8028760;28;20112;-72
2021/06/24 13:58:50;;;;;;;9.02;7.07;;;;;;;22.41;42.83;101427.63;8029393;28;20157;-72
2021/06/24 14:02:41;;;;;;;10.60;6.93;;;;;;;22.31;43.03;101422.44;8029834;28;20394;-72
2021/06/24 14:06:36;;;;;;;11.98;6.38;;;;;;;22.24;43.16;101432.13;8026763;28;20898;-70
2021/06/24 14:10:27;;;;;;;9.73;6.30;;;;;;;22.18;43.15;101427.41;8029117;28;20036;-72
2021/06/24 14:14:18;;;;;;;9.30;5.72;;;;;;;21.99;42.98;101409.81;8029515;28;20063;-70
2021/06/24 14:18:09;;;;;;;11.88;5.93;;;;;;;22.07;43.05;101427.72;8025720;28;20040;-71
2021/06/24 14:22:05;;;;;;;8.75;6.13;;;;;;;22.02;43.15;101420.19;8028172;28;20039;-72
2021/06/24 14:25:56;;;;;;;10.68;6.82;;;;;;;22.04;43.08;101433.41;8026752;28;20024;-71
2021/06/24 14:29:47;;;;;;;11.80;6.63;;;;;;;22.03;43.38;101421.03;8028934;28;20574;-72
2021/06/24 14:33:37;;;;;;;10.23;6.57;;;;;;;22.02;43.37;101425.53;8028429;28;20085;-72
2021/06/24 14:37:28;;;;;;;12.48;7.28;;;;;;;22.04;43.40;101418.16;8025131;28;20430;-70
2021/06/24 14:41:19;;;;;;;9.40;6.07;;;;;;;22.08;43.65;101418.72;8027213;28;20412;-72
2021/06/24 14:45:10;;;;;;;8.82;6.20;;;;;;;22.09;43.50;101417.69;8028911;28;20033;-73
2021/06/24 14:49:01;;;;;;;8.50;5.90;;;;;;;22.07;43.65;101419.69;8028405;28;20730;-71
2021/06/24 14:52:53;;;;;;;9.30;5.85;;;;;;;22.11;43.72;101425.56;8027824;28;20044;-72
2021/06/24 14:56:44;;;;;;;9.50;6.07;;;;;;;22.11;43.71;101422.88;8027323;28;20036;-70
2021/06/24 15:00:36;;;;;;;8.60;5.97;;;;;;;22.15;43.64;101421.56;8025972;28;20044;-72
2021/06/24 15:04:27;;;;;;;9.60;6.30;;;;;;;22.16;43.82;101417.88;8027218;28;20032;-70
2021/06/24 15:08:18;;;;;;;8.77;6.13;;;;;;;22.15;43.73;101417.03;8025359;28;20036;-70
2021/06/24 15:12:09;;;;;;;9.20;5.47;;;;;;;22.13;43.67;101412.84;8028580;28;20032;-73
2021/06/24 15:16:00;;;;;;;7.82;4.90;;;;;;;22.13;43.70;101416.34;8026232;28;20114;-72
2021/06/24 15:19:50;;;;;;;9.02;5.43;;;;;;;22.11;43.82;101413.03;8027986;28;20530;-72
2021/06/24 15:23:41;;;;;;;8.93;5.32;;;;;;;22.11;44.10;101412.19;8026376;28;20733;-72
2021/06/24 15:27:32;;;;;;;7.50;5.05;;;;;;;22.13;43.91;101410.16;8026697;28;20479;-71
2021/06/24 15:31:22;;;;;;;8.18;5.65;;;;;;;22.12;43.64;101405.84;8027282;28;20040;-71
2021/06/24 15:35:16;;;;;;;7.20;5.10;;;;;;;22.18;43.96;101399.81;8025734;28;20086;-70
2021/06/24 15:39:06;;;;;;;9.35;5.38;;;;;;;22.21;43.87;101402.19;8024187;28;20045;-69
2021/06/24 15:42:57;;;;;;;8.02;5.30;;;;;;;22.20;43.76;101401.34;8027063;28;20040;-71
2021/06/24 15:46:48;;;;;;;9.30;5.47;;;;;;;22.21;44.11;101399.50;8023165;28;20039;-71
2021/06/24 15:50:39;;;;;;;11.32;5.38;;;;;;;22.21;43.98;101391.47;8026662;28;20393;-71
2021/06/24 15:54:29;;;;;;;12.82;5.00;;;;;;;22.20;43.88;101392.47;8025948;28;20404;-71
2021/06/24 15:58:20;;;;;;;10.57;5.35;;;;;;;22.17;43.79;101384.75;8024541;28;20028;-71
2021/06/24 16:02:11;;;;;;;9.27;5.45;;;;;;;22.19;43.96;101390.78;8026471;28;20401;-71
2021/06/24 16:06:03;;;;;;;10.13;5.47;;;;;;;22.19;43.76;101388.97;8025123;28;20523;-71
2021/06/24 16:09:54;;;;;;;45.28;14.40;;;;;;;22.16;44.01;101377.75;8023831;28;20535;-71
2021/06/24 16:13:44;;;;;;;23.23;8.20;;;;;;;22.14;43.99;101375.22;8025638;28;20611;-71
2021/06/24 16:17:40;;;;;;;13.48;6.47;;;;;;;22.13;43.67;101381.56;8025013;28;20036;-70
2021/06/24 16:21:33;;;;;;;23.90;8.15;;;;;;;22.12;43.61;101389.78;8024813;28;20059;-71
2021/06/24 16:25:24;;;;;;;11.73;6.65;;;;;;;22.08;43.41;101389.28;8024588;28;20058;-70
2021/06/24 16:29:15;;;;;;;10.63;5.72;;;;;;;22.04;43.57;101388.75;8024430;28;20043;-72
2021/06/24 16:33:06;;;;;;;12.30;6.82;;;;;;;22.01;43.39;101385.56;8024565;28;20040;-71
2021/06/24 16:36:58;;;;;;;8.98;5.63;;;;;;;21.95;43.43;101392.44;8022331;28;20040;-71
2021/06/24 16:40:49;;;;;;;6.05;4.63;;;;;;;21.91;43.38;101395.59;8023987;28;20600;-72
2021/06/24 16:44:46;;;;;;;8.32;4.75;;;;;;;21.78;43.45;101390.66;8024291;28;20035;-72
2021/06/24 16:48:36;;;;;;;7.43;4.93;;;;;;;21.75;43.54;101400.84;8023993;28;20037;-70
2021/06/24 16:52:27;;;;;;;8.48;4.88;;;;;;;21.69;43.58;101396.97;8024424;28;20081;-70
2021/06/24 16:56:18;;;;;;;9.88;5.30;;;;;;;21.64;43.73;101394.78;8023346;28;20033;-71
2021/06/24 17:00:12;;;;;;;7.03;4.60;;;;;;;21.58;43.64;101397.28;8023855;28;20024;-70
2021/06/24 17:04:03;;;;;;;8.07;5.00;;;;;;;21.51;43.87;101396.22;8023014;28;20020;-72
2021/06/24 17:07:54;;;;;;;7.05;4.47;;;;;;;21.44;43.61;101397.84;8021692;28;20121;-72
2021/06/24 17:11:45;;;;;;;7.32;5.25;;;;;;;21.35;43.88;101396.13;8029317;28;20034;-72
2021/06/24 17:15:36;;;;;;;7.85;5.55;;;;;;;21.32;43.93;101396.47;8030189;28;20037;-71
2021/06/24 17:19:26;;;;;;;6.93;5.32;;;;;;;21.23;43.97;101392.06;8031591;28;20043;-71
2021/06/24 17:23:21;;;;;;;7.07;5.50;;;;;;;21.24;44.13;101402.59;8031065;28;20831;-71
2021/06/24 17:27:12;;;;;;;8.27;5.97;;;;;;;21.20;44.26;101403.91;8027580;28;20039;-71
2021/06/24 17:31:03;;;;;;;9.60;5.97;;;;;;;21.16;44.23;101402.53;8028136;28;20040;-71
2021/06/24 17:34:54;;;;;;;13.00;6.60;;;;;;;21.14;44.10;101394.66;8030045;28;20094;-71
2021/06/24 17:38:45;;;;;;;7.63;5.40;;;;;;;21.13;44.15;101395.63;8029879;28;20037;-71
2021/06/24 17:42:35;;;;;;;12.90;6.13;;;;;;;21.10;44.38;101403.97;8027165;28;20088;-69
2021/06/24 17:46:26;;;;;;;10.38;6.55;;;;;;;21.05;44.33;101402.75;8023385;28;20075;-69
2021/06/24 17:50:17;;;;;;;17.55;6.00;;;;;;;20.96;44.10;101396.56;8026026;28;20032;-71
2021/06/24 17:54:07;;;;;;;8.73;5.70;;;;;;;20.96;44.44;101401.91;8033421;28;20040;-71
2021/06/24 17:57:58;;;;;;;7.13;4.93;;;;;;;20.92;44.02;101397.03;8027185;28;20036;-72
2021/06/24 18:01:49;;;;;;;9.73;5.70;;;;;;;20.85;44.23;101394.13;8027948;28;20033;-70
2021/06/24 18:05:40;;;;;;;5.95;4.47;;;;;;;20.77;44.35;101402.06;8024036;28;20036;-70
2021/06/24 18:09:30;;;;;;;8.60;5.60;;;;;;;20.73;44.02;101412.22;8022651;28;20036;-70